Time;durP1;ratioP1;P1;durP2;ratioP2;P2;SDS_P1;SDS_P2;PMS_P1;PMS_P2;Temp;Humidity;BMP_temperature;BMP_pressure;BME280_temperature;BME280_humidity;BME280_pressure;Samples;Min_cycle;Max_cycle;Signal;HPM_P1;HPM_P2
2022/01/31 00:00:55;;;;;;;13.43;2.92;;;4.60;99.90;;;;;;5025792;28;20302;-81
2022/01/31 00:03:22;;;;;;;11.35;3.50;;;4.60;99.90;;;;;;5028226;28;20270;-81
2022/01/31 00:05:49;;;;;;;9.90;3.15;;;4.70;99.90;;;;;;5018125;28;20207;-82
2022/01/31 00:08:21;;;;;;;14.90;4.38;;;4.70;99.90;;;;;;5023208;28;20224;-82
2022/01/31 00:10:48;;;;;;;12.93;3.47;;;4.60;99.90;;;;;;5015752;28;20215;-81
2022/01/31 00:13:20;;;;;;;10.77;4.60;;;4.50;99.90;;;;;;5014582;28;20224;-81
2022/01/31 00:15:53;;;;;;;11.70;3.30;;;4.60;99.90;;;;;;5017232;28;20192;-80
2022/01/31 00:18:20;;;;;;;11.00;3.85;;;4.60;99.90;;;;;;5016219;28;20632;-81
2022/01/31 00:20:46;;;;;;;14.90;4.15;;;4.70;99.90;;;;;;5017069;28;20208;-80
2022/01/31 00:23:13;;;;;;;11.75;3.65;;;4.60;99.90;;;;;;5019657;28;20208;-82
2022/01/31 00:25:40;;;;;;;15.40;4.13;;;4.60;99.90;;;;;;5021604;28;20204;-81
2022/01/31 00:28:06;;;;;;;13.68;4.45;;;4.60;99.90;;;;;;5024238;28;20298;-81
2022/01/31 00:30:34;;;;;;;17.10;5.25;;;4.60;99.90;;;;;;5029205;28;20204;-81
2022/01/31 00:33:01;;;;;;;20.58;4.72;;;4.50;99.90;;;;;;5019968;28;20307;-81
2022/01/31 00:35:27;;;;;;;14.65;5.13;;;4.50;99.90;;;;;;5019762;28;20204;-81
2022/01/31 00:37:54;;;;;;;19.05;5.10;;;4.50;99.90;;;;;;5019694;28;20243;-81
2022/01/31 00:40:20;;;;;;;10.50;3.72;;;4.50;99.90;;;;;;5020196;28;20208;-82
2022/01/31 00:42:47;;;;;;;21.95;5.03;;;4.50;99.90;;;;;;5021186;28;20200;-81
2022/01/31 00:45:18;;;;;;;16.55;3.63;;;4.50;99.90;;;;;;5019977;28;20763;-81
2022/01/31 00:47:49;;;;;;;20.83;7.18;;;4.10;99.90;;;;;;5020064;28;20225;-82
2022/01/31 00:50:19;;;;;;;16.85;4.53;;;4.40;99.90;;;;;;5022337;28;20203;-81
2022/01/31 00:52:46;;;;;;;12.32;3.53;;;4.50;99.90;;;;;;5022142;28;20283;-81
2022/01/31 00:55:14;;;;;;;18.95;4.15;;;4.50;99.90;;;;;;5021324;28;20255;-82
2022/01/31 00:57:41;;;;;;;15.30;5.03;;;4.40;99.90;;;;;;5025592;28;20224;-81
2022/01/31 01:00:10;;;;;;;16.45;3.70;;;4.40;99.90;;;;;;5019078;28;20307;-81
2022/01/31 01:02:37;;;;;;;21.25;3.90;;;4.50;99.90;;;;;;5017944;28;20201;-81
2022/01/31 01:05:05;;;;;;;15.77;4.22;;;4.40;99.90;;;;;;5018595;28;20286;-81
2022/01/31 01:07:32;;;;;;;23.42;4.00;;;4.40;99.90;;;;;;5018577;28;20631;-82
2022/01/31 01:09:59;;;;;;;17.95;4.68;;;4.40;99.90;;;;;;5018911;28;20235;-82
2022/01/31 01:12:26;;;;;;;14.23;4.20;;;4.30;99.90;;;;;;5018782;28;20224;-82
2022/01/31 01:14:52;;;;;;;12.85;4.20;;;4.40;99.90;;;;;;5018691;28;20204;-81
2022/01/31 01:17:19;;;;;;;16.27;3.85;;;4.20;99.90;;;;;;5018627;28;20224;-81
2022/01/31 01:19:46;;;;;;;21.85;4.18;;;4.20;99.90;;;;;;5018896;28;20266;-81
2022/01/31 01:22:14;;;;;;;14.38;4.15;;;4.10;99.90;;;;;;5018290;28;20205;-81
2022/01/31 01:24:41;;;;;;;10.65;4.05;;;4.20;99.90;;;;;;5022695;28;20208;-81
2022/01/31 01:27:08;;;;;;;18.67;4.78;;;4.10;99.90;;;;;;5020604;28;20232;-81
2022/01/31 01:29:35;;;;;;;13.07;4.75;;;4.20;99.90;;;;;;5022027;28;20193;-80
2022/01/31 01:32:02;;;;;;;16.15;5.25;;;4.10;99.90;;;;;;5021755;28;20204;-80
2022/01/31 01:34:32;;;;;;;19.65;4.15;;;4.00;99.90;;;;;;5027656;28;20197;-80
2022/01/31 01:37:00;;;;;;;15.75;4.22;;;4.00;99.90;;;;;;5038853;28;20244;-79
2022/01/31 01:39:28;;;;;;;18.70;5.10;;;4.00;99.90;;;;;;5039293;28;20208;-78
2022/01/31 01:41:55;;;;;;;17.40;3.90;;;3.90;99.90;;;;;;5033315;28;20616;-80
2022/01/31 01:44:40;;;;;;;22.17;4.15;;;3.80;99.90;;;;;;5018305;28;20239;-81
2022/01/31 01:47:07;;;;;;;20.95;5.15;;;4.00;99.90;;;;;;5018097;28;20274;-80
2022/01/31 01:49:34;;;;;;;16.95;4.57;;;4.00;99.90;;;;;;5018681;28;20251;-80
2022/01/31 01:52:00;;;;;;;15.45;4.07;;;3.90;99.90;;;;;;5018183;28;20275;-80
2022/01/31 01:54:28;;;;;;;10.85;4.50;;;4.00;99.90;;;;;;5018296;28;20551;-79
2022/01/31 01:56:55;;;;;;;13.63;4.25;;;4.10;99.90;;;;;;5018453;28;20246;-81
2022/01/31 01:59:22;;;;;;;20.60;4.47;;;4.00;99.90;;;;;;5017839;28;20205;-82
2022/01/31 02:01:48;;;;;;;18.08;4.80;;;4.10;99.90;;;;;;5018252;28;20204;-81
2022/01/31 02:04:15;;;;;;;17.95;4.10;;;4.00;99.90;;;;;;5017975;28;20247;-81
2022/01/31 02:06:41;;;;;;;19.98;5.07;;;4.00;99.90;;;;;;5017864;28;20208;-81
2022/01/31 02:09:08;;;;;;;11.63;4.38;;;4.00;99.90;;;;;;5018251;28;20229;-81
2022/01/31 02:11:36;;;;;;;21.50;4.50;;;4.00;99.90;;;;;;5017744;28;20667;-81
2022/01/31 02:14:03;;;;;;;14.30;4.38;;;4.00;99.90;;;;;;5018728;28;20251;-81
2022/01/31 02:16:32;;;;;;;15.02;3.90;;;3.90;99.90;;;;;;5017896;28;20294;-81
2022/01/31 02:18:58;;;;;;;19.02;4.80;;;4.00;99.90;;;;;;5018376;28;20227;-81
2022/01/31 02:21:26;;;;;;;13.82;4.80;;;4.00;99.90;;;;;;5018663;28;20244;-81
2022/01/31 02:23:53;;;;;;;17.27;4.43;;;4.00;99.90;;;;;;5017466;28;20201;-81
2022/01/31 02:26:20;;;;;;;14.82;5.50;;;4.00;99.90;;;;;;5018035;28;20695;-81
2022/01/31 02:28:46;;;;;;;15.60;4.93;;;4.10;99.90;;;;;;5023081;28;20267;-80
2022/01/31 02:31:13;;;;;;;20.55;5.00;;;4.10;99.90;;;;;;5027321;28;20625;-80
2022/01/31 02:33:40;;;;;;;15.55;4.55;;;4.00;99.90;;;;;;5027570;28;20691;-80
2022/01/31 02:36:08;;;;;;;21.17;4.90;;;4.10;99.90;;;;;;5029349;28;20204;-80
2022/01/31 02:38:37;;;;;;;18.52;5.22;;;4.00;99.90;;;;;;5018964;28;20599;-81
2022/01/31 02:41:04;;;;;;;17.17;4.55;;;4.00;99.90;;;;;;5017624;28;20567;-81
2022/01/31 02:43:33;;;;;;;14.35;4.60;;;4.00;99.90;;;;;;5017542;28;20236;-81
2022/01/31 02:46:00;;;;;;;12.60;4.10;;;4.20;99.90;;;;;;5016592;28;20247;-81
2022/01/31 02:48:29;;;;;;;14.57;4.38;;;4.00;99.90;;;;;;5017174;28;20757;-80
2022/01/31 02:50:56;;;;;;;14.05;4.10;;;4.00;99.90;;;;;;5023142;28;20343;-79
2022/01/31 02:53:25;;;;;;;17.63;3.90;;;4.00;99.90;;;;;;5029572;28;20216;-79
2022/01/31 02:55:54;;;;;;;15.20;5.13;;;4.00;99.90;;;;;;5030293;28;20205;-79
2022/01/31 02:58:22;;;;;;;20.88;5.18;;;4.20;99.90;;;;;;5028613;28;20228;-79
2022/01/31 03:00:49;;;;;;;28.02;5.55;;;3.90;99.90;;;;;;5027096;28;20200;-79
2022/01/31 03:03:15;;;;;;;22.08;5.60;;;3.90;99.90;;;;;;5029175;28;20200;-80
2022/01/31 03:05:42;;;;;;;22.65;6.45;;;3.90;99.90;;;;;;5022063;28;20204;-80
2022/01/31 03:08:09;;;;;;;18.42;4.60;;;3.90;99.90;;;;;;5024212;28;20224;-79
2022/01/31 03:10:36;;;;;;;16.15;4.15;;;3.90;99.90;;;;;;5018510;28;20258;-81
2022/01/31 03:13:05;;;;;;;13.10;4.72;;;3.90;99.90;;;;;;5018234;28;20626;-79
2022/01/31 03:15:33;;;;;;;22.33;3.72;;;3.90;99.90;;;;;;5024441;28;20679;-82
2022/01/31 03:17:59;;;;;;;15.55;4.45;;;4.00;99.90;;;;;;5022355;28;20303;-80
2022/01/31 03:20:27;;;;;;;20.55;4.65;;;4.00;99.90;;;;;;5024113;28;20204;-81
2022/01/31 03:22:53;;;;;;;19.58;5.15;;;3.90;99.90;;;;;;5018422;28;20231;-82
2022/01/31 03:25:20;;;;;;;17.63;5.00;;;3.90;99.90;;;;;;5016421;28;20200;-82
2022/01/31 03:27:49;;;;;;;12.88;4.18;;;3.90;99.90;;;;;;5044394;22;20220;-82
2022/01/31 03:30:19;;;;;;;18.67;4.88;;;3.90;99.90;;;;;;5039442;28;20257;-81
2022/01/31 03:32:46;;;;;;;21.00;7.00;;;3.90;99.90;;;;;;5039747;28;20200;-80
2022/01/31 03:35:12;;;;;;;21.05;5.13;;;4.00;99.90;;;;;;5038391;28;20211;-80
2022/01/31 03:37:39;;;;;;;19.83;4.25;;;4.00;99.90;;;;;;5039732;28;20235;-80
2022/01/31 03:40:08;;;;;;;21.73;5.30;;;3.90;99.90;;;;;;5053755;28;20186;-80
2022/01/31 03:42:35;;;;;;;15.05;5.07;;;3.90;99.90;;;;;;5058288;28;20269;-80
2022/01/31 03:45:02;;;;;;;26.30;6.18;;;3.90;99.90;;;;;;5051309;28;20199;-81
2022/01/31 03:47:30;;;;;;;15.07;5.63;;;3.70;99.90;;;;;;5040022;28;20208;-80
2022/01/31 03:49:57;;;;;;;23.08;4.95;;;3.80;99.90;;;;;;5039422;28;20204;-82
2022/01/31 03:52:23;;;;;;;23.33;5.25;;;3.80;99.90;;;;;;5041665;28;20231;-81
2022/01/31 03:54:50;;;;;;;28.40;5.03;;;3.80;99.90;;;;;;5051650;28;20231;-81
2022/01/31 03:57:16;;;;;;;19.95;4.93;;;3.80;99.90;;;;;;5054284;28;20196;-81
2022/01/31 03:59:43;;;;;;;12.50;4.90;;;3.80;99.90;;;;;;5059850;28;20218;-81
2022/01/31 04:02:10;;;;;;;17.35;5.18;;;3.80;99.90;;;;;;5060980;28;20187;-80
2022/01/31 04:04:37;;;;;;;28.45;7.70;;;3.80;99.90;;;;;;5061251;28;20184;-80
2022/01/31 04:07:04;;;;;;;21.42;5.45;;;3.80;99.90;;;;;;5060737;28;20195;-81
2022/01/31 04:09:31;;;;;;;17.33;5.55;;;3.80;99.90;;;;;;5061988;28;20203;-80
2022/01/31 04:11:57;;;;;;;17.67;5.53;;;3.80;99.90;;;;;;5060975;28;20203;-80
2022/01/31 04:14:27;;;;;;;24.75;6.50;;;3.80;99.90;;;;;;5059414;28;20212;-80
2022/01/31 04:16:56;;;;;;;16.77;5.80;;;3.70;99.90;;;;;;5057672;28;20207;-80
2022/01/31 04:19:23;;;;;;;25.60;6.57;;;3.70;99.90;;;;;;5053943;28;20292;-80
2022/01/31 04:21:51;;;;;;;14.05;5.00;;;3.80;99.90;;;;;;5053426;28;20208;-80
2022/01/31 04:24:22;;;;;;;15.80;6.00;;;3.70;99.90;;;;;;5051401;28;20203;-81
2022/01/31 04:26:58;;;;;;;17.40;5.95;;;3.70;99.90;;;;;;5050353;28;20562;-80
2022/01/31 04:29:27;;;;;;;18.35;5.75;;;3.70;99.90;;;;;;5048419;28;20297;-81
2022/01/31 04:31:54;;;;;;;17.60;4.93;;;3.70;99.90;;;;;;5047505;28;20203;-81
2022/01/31 04:34:22;;;;;;;19.02;6.07;;;3.80;99.90;;;;;;5044384;28;20216;-81
2022/01/31 04:36:48;;;;;;;20.00;5.40;;;3.80;99.90;;;;;;5045043;28;20234;-80
2022/01/31 04:39:18;;;;;;;24.25;5.53;;;3.80;99.90;;;;;;5044098;28;20437;-80
2022/01/31 04:41:46;;;;;;;25.40;5.38;;;3.80;99.90;;;;;;5044797;28;20203;-82
2022/01/31 04:44:12;;;;;;;23.13;5.55;;;3.80;99.90;;;;;;5044909;28;20203;-80
2022/01/31 04:46:40;;;;;;;22.98;5.25;;;3.80;99.90;;;;;;5050571;28;20279;-80
2022/01/31 04:49:06;;;;;;;12.43;4.93;;;3.70;99.90;;;;;;5059822;28;20255;-80
2022/01/31 04:51:33;;;;;;;14.63;5.38;;;3.80;99.90;;;;;;5059095;28;20207;-80
2022/01/31 04:54:00;;;;;;;18.33;5.43;;;3.70;99.90;;;;;;5052510;28;20674;-80
2022/01/31 04:56:28;;;;;;;17.38;5.75;;;3.70;99.90;;;;;;5045318;28;20268;-80
2022/01/31 04:58:54;;;;;;;22.70;4.75;;;3.70;99.90;;;;;;5044867;28;20619;-81
2022/01/31 05:01:22;;;;;;;21.73;4.78;;;3.70;99.90;;;;;;5044963;28;20280;-81
2022/01/31 05:03:50;;;;;;;23.33;5.78;;;3.60;99.90;;;;;;5045005;28;20204;-80
2022/01/31 05:06:20;;;;;;;16.67;4.10;;;3.60;99.90;;;;;;5044590;28;20208;-81
2022/01/31 05:08:47;;;;;;;13.98;5.18;;;3.50;99.90;;;;;;5043265;28;20568;-81
2022/01/31 05:11:13;;;;;;;23.77;5.45;;;3.60;99.90;;;;;;5055581;28;20234;-80
2022/01/31 05:13:41;;;;;;;19.40;4.75;;;3.60;99.90;;;;;;5056495;28;20223;-81
2022/01/31 05:16:08;;;;;;;12.85;4.43;;;3.50;99.90;;;;;;5056277;28;20199;-81
2022/01/31 05:18:35;;;;;;;23.40;5.32;;;3.50;99.90;;;;;;5048074;28;20472;-81
2022/01/31 05:21:04;;;;;;;23.73;5.38;;;3.50;99.90;;;;;;5042964;28;20212;-82
2022/01/31 05:23:30;;;;;;;16.08;4.25;;;3.60;99.90;;;;;;5050331;28;20187;-80
2022/01/31 05:25:57;;;;;;;21.17;5.68;;;3.50;99.90;;;;;;5060467;28;20215;-80
2022/01/31 05:28:24;;;;;;;15.93;6.03;;;3.50;99.90;;;;;;5054686;28;20227;-80
2022/01/31 05:30:51;;;;;;;17.98;4.50;;;3.50;99.90;;;;;;5056762;28;20208;-80
2022/01/31 05:33:18;;;;;;;18.65;4.82;;;3.60;99.90;;;;;;5057347;28;20231;-80
2022/01/31 05:35:45;;;;;;;22.75;5.03;;;3.40;99.90;;;;;;5057143;28;20211;-80
2022/01/31 05:38:17;;;;;;;21.55;4.95;;;3.50;99.90;;;;;;5056345;28;20314;-80
2022/01/31 05:40:44;;;;;;;22.77;5.07;;;3.20;99.90;;;;;;5056185;28;20204;-81
2022/01/31 05:43:11;;;;;;;21.08;6.28;;;3.30;99.90;;;;;;5053590;28;20207;-81
2022/01/31 05:45:37;;;;;;;20.20;5.20;;;3.40;99.90;;;;;;5050738;28;20215;-80
2022/01/31 05:48:06;;;;;;;13.18;4.90;;;3.40;99.90;;;;;;5057115;28;20238;-80
2022/01/31 05:50:32;;;;;;;22.17;4.28;;;3.10;99.90;;;;;;5057714;28;20231;-81
2022/01/31 05:52:59;;;;;;;22.13;5.57;;;3.30;99.90;;;;;;5057184;28;20204;-80
2022/01/31 05:55:26;;;;;;;28.17;8.27;;;3.30;99.90;;;;;;5056359;28;20223;-81
2022/01/31 05:57:52;;;;;;;19.90;6.97;;;3.30;99.90;;;;;;5053473;28;20702;-80
2022/01/31 06:00:19;;;;;;;18.27;4.85;;;3.00;99.90;;;;;;5051242;28;20204;-81
2022/01/31 06:02:48;;;;;;;19.50;6.25;;;3.30;99.90;;;;;;5047379;28;20211;-81
2022/01/31 06:05:16;;;;;;;24.77;6.20;;;3.30;99.90;;;;;;5043664;28;20200;-82
2022/01/31 06:07:44;;;;;;;26.15;6.68;;;3.30;99.90;;;;;;5042112;28;20251;-81
2022/01/31 06:10:11;;;;;;;22.10;5.70;;;3.30;99.90;;;;;;5042463;28;20559;-80
2022/01/31 06:12:41;;;;;;;21.00;5.80;;;3.30;99.90;;;;;;5042611;28;20269;-81
2022/01/31 06:15:08;;;;;;;14.13;5.72;;;3.30;99.90;;;;;;5041012;28;20231;-81
2022/01/31 06:17:35;;;;;;;17.40;5.15;;;3.30;99.90;;;;;;5041270;28;20231;-80
2022/01/31 06:20:02;;;;;;;15.00;4.70;;;3.30;99.90;;;;;;5041616;28;20219;-81
2022/01/31 06:22:30;;;;;;;20.63;5.03;;;3.30;99.90;;;;;;5040504;28;20663;-80
2022/01/31 06:24:57;;;;;;;16.30;5.35;;;3.20;99.90;;;;;;5039831;28;20230;-82
2022/01/31 06:27:23;;;;;;;21.92;6.65;;;3.20;99.90;;;;;;5041561;28;20733;-81
2022/01/31 06:29:50;;;;;;;18.73;5.05;;;3.30;99.90;;;;;;5045413;28;20188;-81
2022/01/31 06:32:18;;;;;;;21.65;6.18;;;3.30;99.90;;;;;;5043341;28;20230;-81
2022/01/31 06:34:45;;;;;;;17.27;4.45;;;3.40;99.90;;;;;;5041884;28;20258;-81
2022/01/31 06:37:12;;;;;;;20.63;5.55;;;3.30;99.90;;;;;;5043854;28;20204;-81
2022/01/31 06:39:40;;;;;;;24.42;5.97;;;3.30;99.90;;;;;;5043656;28;20203;-82
2022/01/31 06:42:07;;;;;;;33.10;6.93;;;3.30;99.90;;;;;;5041980;28;20273;-82
2022/01/31 06:44:36;;;;;;;17.45;5.15;;;3.20;99.90;;;;;;5042404;28;20208;-80
2022/01/31 06:47:03;;;;;;;17.05;6.32;;;3.20;99.90;;;;;;5050269;28;20215;-80
2022/01/31 06:49:30;;;;;;;19.38;6.85;;;3.30;99.90;;;;;;5040890;28;20251;-81
2022/01/31 06:51:56;;;;;;;26.42;7.07;;;3.30;99.90;;;;;;5047868;28;20219;-81
2022/01/31 06:54:23;;;;;;;20.73;6.30;;;3.40;99.90;;;;;;5053682;28;20226;-80
2022/01/31 06:56:51;;;;;;;20.08;5.40;;;3.30;99.90;;;;;;5055681;28;20199;-80
2022/01/31 06:59:18;;;;;;;17.67;5.28;;;3.20;99.90;;;;;;5052969;28;20314;-80
2022/01/31 07:01:44;;;;;;;24.58;6.15;;;3.20;99.90;;;;;;5045417;28;20235;-81
2022/01/31 07:04:11;;;;;;;18.10;4.90;;;3.10;99.90;;;;;;5043235;28;20612;-81
2022/01/31 07:06:38;;;;;;;19.75;5.85;;;3.10;99.90;;;;;;5045127;28;20213;-80
2022/01/31 07:09:04;;;;;;;20.33;7.80;;;3.10;99.90;;;;;;5044064;28;20238;-81
2022/01/31 07:11:36;;;;;;;15.45;5.88;;;3.10;99.90;;;;;;5042667;28;20230;-80
2022/01/31 07:14:06;;;;;;;28.83;7.63;;;3.10;99.90;;;;;;5042275;28;20266;-81
2022/01/31 07:16:34;;;;;;;23.80;6.65;;;3.20;99.90;;;;;;5042929;28;20646;-81
2022/01/31 07:19:05;;;;;;;33.10;6.53;;;3.30;99.90;;;;;;5042482;28;20266;-81
2022/01/31 07:21:37;;;;;;;22.05;6.70;;;3.30;99.90;;;;;;5045872;28;20188;-81
2022/01/31 07:24:18;;;;;;;26.88;7.15;;;3.30;99.90;;;;;;5045658;28;20219;-81
2022/01/31 07:26:44;;;;;;;12.75;5.28;;;3.20;99.90;;;;;;5044560;28;20277;-81
2022/01/31 07:29:13;;;;;;;16.45;5.50;;;3.30;99.90;;;;;;5045309;28;20232;-81
2022/01/31 07:31:40;;;;;;;16.27;5.40;;;3.20;99.90;;;;;;5047539;28;20208;-81
2022/01/31 07:34:08;;;;;;;19.20;5.18;;;3.50;99.90;;;;;;5055924;28;20207;-80
2022/01/31 07:36:35;;;;;;;17.52;6.35;;;3.30;99.90;;;;;;5055100;28;20204;-81
2022/01/31 07:39:02;;;;;;;20.55;6.20;;;3.30;99.90;;;;;;5056822;28;20207;-80
2022/01/31 07:41:28;;;;;;;15.25;5.22;;;3.30;99.90;;;;;;5056897;28;20187;-79
2022/01/31 07:43:55;;;;;;;23.90;6.40;;;3.30;99.90;;;;;;5057686;28;20230;-79
2022/01/31 07:46:23;;;;;;;24.48;6.82;;;3.20;99.90;;;;;;5056090;28;20234;-81
2022/01/31 07:48:50;;;;;;;24.15;7.50;;;2.70;99.90;;;;;;5056132;28;20231;-81
2022/01/31 07:51:17;;;;;;;23.95;7.05;;;3.10;99.90;;;;;;5057960;28;20199;-79
2022/01/31 07:53:44;;;;;;;24.48;6.68;;;3.10;99.90;;;;;;5058075;28;20204;-79
2022/01/31 07:56:11;;;;;;;18.52;4.63;;;2.90;99.90;;;;;;5057868;28;20238;-79
2022/01/31 07:58:39;;;;;;;27.63;8.68;;;2.90;99.90;;;;;;5058093;28;20207;-81
2022/01/31 08:01:05;;;;;;;19.83;6.68;;;3.20;99.90;;;;;;5057138;28;20199;-80
2022/01/31 08:03:34;;;;;;;28.63;7.43;;;3.30;99.90;;;;;;5057650;28;20184;-81
2022/01/31 08:06:00;;;;;;;20.83;5.95;;;3.30;99.90;;;;;;5055669;28;20199;-82
2022/01/31 08:08:29;;;;;;;26.05;6.72;;;3.30;99.90;;;;;;5053650;28;20223;-82
2022/01/31 08:11:02;;;;;;;24.55;7.78;;;3.50;99.90;;;;;;5049931;28;20199;-81
2022/01/31 08:13:29;;;;;;;18.67;7.05;;;3.40;99.90;;;;;;5043548;28;20188;-80
2022/01/31 08:16:09;;;;;;;18.30;6.57;;;3.40;99.90;;;;;;5041018;28;20657;-82
2022/01/31 08:18:39;;;;;;;16.38;5.90;;;3.40;99.90;;;;;;5040426;28;20311;-82
2022/01/31 08:21:06;;;;;;;25.80;7.50;;;3.50;99.90;;;;;;5041426;28;20196;-81
2022/01/31 08:23:34;;;;;;;21.63;5.65;;;3.30;99.90;;;;;;5042449;28;20211;-82
2022/01/31 08:26:01;;;;;;;17.27;6.47;;;3.40;99.90;;;;;;5041113;28;20202;-82
2022/01/31 08:28:36;;;;;;;20.75;7.45;;;3.50;99.90;;;;;;5041076;28;20242;-81
2022/01/31 08:31:11;;;;;;;18.30;6.95;;;3.40;99.90;;;;;;5039962;28;20184;-82
2022/01/31 08:33:45;;;;;;;19.17;6.97;;;3.40;99.90;;;;;;5039363;28;20614;-81
2022/01/31 08:36:13;;;;;;;25.88;6.80;;;3.50;99.90;;;;;;5039500;28;20286;-82
2022/01/31 08:38:42;;;;;;;19.55;6.38;;;3.40;99.90;;;;;;5038947;28;20223;-81
2022/01/31 08:41:09;;;;;;;19.48;6.70;;;3.50;99.90;;;;;;5038377;28;20211;-81
2022/01/31 08:43:38;;;;;;;25.05;8.25;;;3.80;99.90;;;;;;5039313;28;20204;-82
2022/01/31 08:46:05;;;;;;;17.85;5.85;;;3.50;99.90;;;;;;5041662;28;20212;-80
2022/01/31 08:48:33;;;;;;;22.88;6.30;;;3.50;99.90;;;;;;5041972;28;20219;-82
2022/01/31 08:51:02;;;;;;;24.45;6.47;;;3.60;99.90;;;;;;5042647;28;20199;-86
2022/01/31 08:53:28;;;;;;;18.50;6.93;;;3.70;99.90;;;;;;5042725;28;20208;-82
2022/01/31 08:55:58;;;;;;;20.77;7.07;;;3.70;99.90;;;;;;5043171;28;20219;-81
2022/01/31 08:58:26;;;;;;;23.75;6.70;;;3.70;99.90;;;;;;5042265;28;20224;-83
2022/01/31 09:01:00;;;;;;;27.55;8.93;;;3.60;99.90;;;;;;5043121;28;20208;-81
2022/01/31 09:06:20;;;;;;;26.08;5.82;;;3.70;99.90;;;;;;5037349;28;20188;-82
2022/01/31 09:08:47;;;;;;;23.30;5.50;;;3.20;99.90;;;;;;5042077;28;20281;-82
2022/01/31 09:11:13;;;;;;;16.25;5.53;;;3.80;99.90;;;;;;5042803;28;20203;-82
2022/01/31 09:13:41;;;;;;;17.63;6.00;;;3.80;99.90;;;;;;5042294;28;20231;-82
2022/01/31 09:16:08;;;;;;;16.38;5.90;;;3.90;99.90;;;;;;5043087;28;20223;-83
2022/01/31 09:18:35;;;;;;;13.27;5.63;;;3.90;99.90;;;;;;5041858;28;20659;-82
2022/01/31 09:21:02;;;;;;;12.15;4.43;;;3.90;99.90;;;;;;5042487;28;20210;-82
2022/01/31 09:23:34;;;;;;;19.08;5.47;;;3.80;99.90;;;;;;5042578;28;20230;-81
2022/01/31 09:26:01;;;;;;;18.92;7.10;;;3.80;99.90;;;;;;5042241;28;20181;-82
2022/01/31 09:28:28;;;;;;;19.33;7.60;;;3.80;99.90;;;;;;5058179;22;20286;-81
2022/01/31 09:30:55;;;;;;;25.77;6.95;;;3.80;99.90;;;;;;5021268;28;20211;-82
2022/01/31 09:33:23;;;;;;;26.67;7.00;;;3.90;99.90;;;;;;5020315;28;20659;-81
2022/01/31 09:35:49;;;;;;;20.08;5.93;;;3.80;99.90;;;;;;5021111;28;20247;-81
2022/01/31 09:38:18;;;;;;;23.33;6.13;;;3.80;99.90;;;;;;5020072;28;20745;-82
2022/01/31 09:40:46;;;;;;;17.45;5.25;;;3.80;99.90;;;;;;5019754;28;20555;-81
2022/01/31 09:46:15;;;;;;;12.90;5.68;;;3.80;99.90;;;;;;5020107;28;20231;-80
2022/01/31 09:48:43;;;;;;;15.38;6.35;;;3.80;99.90;;;;;;5020582;28;20224;-81
2022/01/31 09:51:12;;;;;;;19.15;6.13;;;3.60;99.90;;;;;;5021622;28;20227;-82
2022/01/31 09:53:41;;;;;;;22.73;6.05;;;3.70;99.90;;;;;;5021028;28;20204;-81
2022/01/31 09:56:11;;;;;;;19.92;6.47;;;4.10;99.90;;;;;;5018979;28;20634;-80
2022/01/31 09:58:38;;;;;;;20.40;5.72;;;3.70;99.90;;;;;;5018974;28;20228;-82
2022/01/31 10:01:08;;;;;;;24.48;7.35;;;3.80;99.90;;;;;;5018860;28;20205;-82
2022/01/31 10:03:44;;;;;;;14.10;5.70;;;4.00;99.90;;;;;;5019266;28;20234;-80
2022/01/31 10:06:20;;;;;;;21.45;7.57;;;4.00;99.90;;;;;;5020434;28;20192;-80
2022/01/31 10:08:47;;;;;;;16.65;6.32;;;3.90;99.90;;;;;;5023932;28;20224;-82
2022/01/31 10:11:27;;;;;;;15.45;7.25;;;4.00;99.90;;;;;;5019779;28;20214;-82
2022/01/31 10:16:45;;;;;;;27.38;6.15;;;4.10;99.90;;;;;;5024266;28;20282;-78
2022/01/31 10:19:12;;;;;;;20.40;7.15;;;4.00;99.90;;;;;;5020697;28;20243;-82
2022/01/31 10:21:55;;;;;;;21.15;6.28;;;4.10;99.90;;;;;;5019025;28;20215;-82
2022/01/31 10:24:22;;;;;;;25.23;8.20;;;4.20;99.90;;;;;;5025176;28;20196;-80
2022/01/31 10:26:51;;;;;;;22.15;6.03;;;4.10;99.90;;;;;;5018242;28;20201;-80
2022/01/31 10:29:20;;;;;;;16.25;6.00;;;4.10;99.90;;;;;;5020074;28;20369;-81
2022/01/31 10:32:01;;;;;;;18.33;7.55;;;4.10;99.90;;;;;;5021827;28;20242;-81
2022/01/31 10:34:28;;;;;;;18.67;6.75;;;4.20;99.90;;;;;;5018535;28;20571;-81
2022/01/31 10:36:55;;;;;;;11.65;4.85;;;4.20;99.90;;;;;;5018933;28;20227;-80
2022/01/31 10:45:27;;;;;;;16.35;6.18;;;4.10;99.90;;;;;;5017496;28;20569;-80
2022/01/31 10:51:08;;;;;;;25.85;6.75;;;4.00;99.90;;;;;;5020147;28;20623;-80
2022/01/31 10:53:39;;;;;;;13.95;6.25;;;3.80;99.90;;;;;;5019735;28;20196;-79
2022/01/31 10:56:06;;;;;;;20.90;5.65;;;4.00;99.90;;;;;;5020015;28;20572;-81
2022/01/31 10:58:34;;;;;;;19.48;5.18;;;4.00;99.90;;;;;;5020359;28;20259;-81
2022/01/31 11:01:12;;;;;;;17.25;6.22;;;4.10;99.90;;;;;;5020364;28;20228;-81
2022/01/31 11:03:40;;;;;;;16.27;5.55;;;4.20;99.90;;;;;;5020000;28;20188;-81
2022/01/31 11:06:09;;;;;;;17.88;5.47;;;4.20;99.90;;;;;;5022422;28;20268;-81
2022/01/31 11:08:35;;;;;;;17.13;7.00;;;4.20;99.90;;;;;;5018867;28;20718;-81
2022/01/31 11:11:03;;;;;;;24.48;6.35;;;4.20;99.90;;;;;;5020800;28;20215;-81
2022/01/31 11:13:34;;;;;;;22.38;6.47;;;4.20;99.90;;;;;;5019927;28;20200;-80
2022/01/31 11:16:01;;;;;;;11.63;5.03;;;4.20;99.90;;;;;;5023990;28;20240;-81
2022/01/31 11:18:30;;;;;;;24.02;6.55;;;4.10;99.90;;;;;;5030012;28;20228;-80
2022/01/31 11:21:00;;;;;;;22.63;5.43;;;4.10;99.90;;;;;;5033063;28;20254;-81
2022/01/31 11:23:28;;;;;;;16.20;5.22;;;4.30;99.90;;;;;;5029682;28;20208;-80
2022/01/31 11:25:57;;;;;;;15.05;6.65;;;4.30;99.90;;;;;;5030707;28;20196;-81
2022/01/31 11:28:28;;;;;;;24.17;6.63;;;4.30;99.90;;;;;;5028892;28;20228;-80
2022/01/31 11:30:56;;;;;;;12.23;6.45;;;4.60;99.90;;;;;;5028652;28;20279;-79
2022/01/31 11:33:24;;;;;;;21.88;5.63;;;4.60;99.90;;;;;;5028406;28;20223;-80
2022/01/31 11:35:53;;;;;;;16.55;6.03;;;4.50;99.90;;;;;;5030356;28;20220;-81
2022/01/31 11:38:20;;;;;;;17.63;6.82;;;4.40;99.90;;;;;;5031365;28;20283;-81
2022/01/31 11:40:48;;;;;;;17.73;7.47;;;4.70;99.90;;;;;;5025843;28;20208;-82
2022/01/31 11:43:16;;;;;;;19.00;5.78;;;4.70;99.90;;;;;;5020837;28;20204;-82
2022/01/31 11:45:46;;;;;;;20.40;6.10;;;4.90;99.90;;;;;;5021616;28;20208;-81
2022/01/31 11:48:21;;;;;;;12.55;4.70;;;4.70;99.90;;;;;;5022630;28;20227;-80
2022/01/31 11:50:50;;;;;;;23.83;6.10;;;4.70;99.90;;;;;;5031277;28;20250;-80
2022/01/31 11:53:26;;;;;;;27.63;5.72;;;4.60;99.90;;;;;;5036972;28;20176;-79
2022/01/31 11:55:52;;;;;;;11.27;5.00;;;4.60;99.90;;;;;;5037252;28;20215;-80
2022/01/31 11:58:19;;;;;;;16.85;6.78;;;4.80;99.90;;;;;;5036943;28;20204;-78
2022/01/31 12:00:48;;;;;;;15.23;6.68;;;4.80;99.90;;;;;;5036642;28;20193;-79
2022/01/31 12:03:20;;;;;;;13.20;5.45;;;4.80;99.90;;;;;;5020390;28;20267;-81
2022/01/31 12:05:47;;;;;;;15.13;5.78;;;4.80;99.90;;;;;;5020297;28;20231;-82
2022/01/31 12:08:17;;;;;;;15.05;6.03;;;4.90;99.90;;;;;;5020999;28;20220;-82
2022/01/31 12:10:47;;;;;;;18.98;6.40;;;5.10;99.90;;;;;;5021874;28;20239;-81
2022/01/31 12:13:34;;;;;;;19.65;7.35;;;5.00;99.90;;;;;;5023606;28;20199;-80
2022/01/31 12:16:11;;;;;;;17.67;6.05;;;4.90;99.90;;;;;;5025669;28;20209;-79
2022/01/31 12:18:57;;;;;;;16.67;5.53;;;4.60;99.90;;;;;;5031186;28;20240;-79
2022/01/31 12:24:33;;;;;;;18.80;6.35;;;4.70;99.90;;;;;;5022710;28;20262;-82
2022/01/31 12:27:06;;;;;;;18.17;6.20;;;5.10;99.90;;;;;;5020596;28;20192;-81
2022/01/31 12:29:35;;;;;;;16.48;5.55;;;4.90;99.90;;;;;;5021681;28;20543;-80
2022/01/31 12:32:15;;;;;;;16.27;5.75;;;4.60;99.90;;;;;;5021444;28;20642;-80
2022/01/31 12:34:51;;;;;;;24.08;7.68;;;4.80;99.90;;;;;;5022279;28;20260;-81
2022/01/31 12:37:25;;;;;;;20.60;6.97;;;4.90;99.90;;;;;;5022995;28;20323;-82
2022/01/31 12:40:00;;;;;;;25.48;7.38;;;5.00;99.90;;;;;;5023588;28;20223;-81
2022/01/31 12:45:33;;;;;;;21.83;6.15;;;5.10;99.90;;;;;;5016314;28;20199;-82
2022/01/31 12:48:15;;;;;;;18.35;6.45;;;5.10;99.90;;;;;;5022312;28;20224;-82
2022/01/31 12:51:04;;;;;;;14.55;6.95;;;5.10;99.90;;;;;;5033771;28;20224;-81
2022/01/31 12:53:47;;;;;;;25.60;7.55;;;5.00;99.90;;;;;;5024372;28;20589;-82
2022/01/31 12:56:24;;;;;;;12.60;5.18;;;4.90;99.90;;;;;;5022768;28;20276;-83
2022/01/31 12:59:03;;;;;;;22.02;7.60;;;5.30;99.90;;;;;;5024445;28;20224;-81
2022/01/31 13:01:34;;;;;;;18.52;6.60;;;5.60;99.90;;;;;;5022755;28;20279;-81
2022/01/31 13:04:05;;;;;;;20.95;6.47;;;5.70;99.90;;;;;;5021744;28;20189;-81
2022/01/31 13:06:39;;;;;;;26.33;8.35;;;5.30;99.90;;;;;;5020714;28;20196;-80
2022/01/31 13:09:09;;;;;;;21.02;7.57;;;5.00;99.90;;;;;;5021948;28;20247;-80
2022/01/31 13:11:37;;;;;;;18.73;7.78;;;5.10;99.90;;;;;;5023547;28;20555;-81
2022/01/31 13:14:10;;;;;;;16.60;6.07;;;5.00;99.90;;;;;;5022878;28;20200;-80
2022/01/31 13:16:43;;;;;;;19.67;7.50;;;4.80;99.90;;;;;;5021718;28;20212;-81
2022/01/31 13:19:15;;;;;;;20.27;7.55;;;5.00;99.90;;;;;;5027370;28;20263;-81